createdAt,value
2023-03-21T00:00:33.950Z,59.74
2023-03-21T00:03:00.572Z,59.73
2023-03-21T00:05:27.050Z,59.88
2023-03-21T00:07:53.641Z,59.83
2023-03-21T00:10:32.982Z,59.89
2023-03-21T00:13:05.701Z,59.67
2023-03-21T00:15:42.651Z,59.79
2023-03-21T00:18:15.800Z,59.98
2023-03-21T00:20:47.329Z,60.12
2023-03-21T00:23:13.739Z,60.25
2023-03-21T00:25:40.314Z,60.22
2023-03-21T00:28:08.556Z,60.23
2023-03-21T00:30:35.412Z,59.99
2023-03-21T00:33:08.952Z,59.91
2023-03-21T00:36:12.467Z,59.93
2023-03-21T00:38:36.943Z,60.00
2023-03-21T00:41:17.690Z,60.03
2023-03-21T00:43:47.710Z,60.04
2023-03-21T00:46:14.220Z,60.26
2023-03-21T00:48:40.579Z,60.00
2023-03-21T00:51:21.412Z,60.14
2023-03-21T00:53:47.836Z,59.85
2023-03-21T00:56:14.161Z,60.05
2023-03-21T00:58:40.670Z,59.91
2023-03-21T01:01:09.525Z,59.90
2023-03-21T01:03:42.597Z,60.15
2023-03-21T01:06:13.747Z,59.82
2023-03-21T01:08:58.360Z,59.96
2023-03-21T01:11:28.336Z,60.01
2023-03-21T01:14:07.308Z,59.96
2023-03-21T01:16:37.786Z,59.91
2023-03-21T01:19:09.293Z,60.00
2023-03-21T01:21:41.190Z,60.11
2023-03-21T01:24:07.924Z,60.20
2023-03-21T01:26:34.453Z,60.24
2023-03-21T01:29:00.864Z,60.27
2023-03-21T01:31:27.287Z,60.05
2023-03-21T01:33:53.866Z,60.27
2023-03-21T01:36:23.988Z,60.11
2023-03-21T01:38:51.761Z,60.17
2023-03-21T01:41:41.897Z,60.21
2023-03-21T01:44:15.508Z,60.02
2023-03-21T01:47:03.647Z,60.12
2023-03-21T01:49:40.779Z,60.11
2023-03-21T01:52:23.549Z,60.06
2023-03-21T01:54:55.384Z,60.31
2023-03-21T01:57:40.394Z,60.18
2023-03-21T02:00:12.842Z,60.32
2023-03-21T02:02:58.238Z,60.32
2023-03-21T02:05:38.807Z,60.39
2023-03-21T02:08:05.584Z,60.45
2023-03-21T02:10:32.858Z,60.46
2023-03-21T02:13:09.319Z,60.48
2023-03-21T02:15:43.947Z,60.58
2023-03-21T02:18:33.319Z,60.66
2023-03-21T02:21:11.862Z,60.53
2023-03-21T02:24:12.576Z,60.80
2023-03-21T02:27:04.305Z,60.75
2023-03-21T02:29:58.988Z,60.66
2023-03-21T02:32:48.694Z,60.73
2023-03-21T02:35:23.906Z,60.91
2023-03-21T02:38:00.785Z,60.73
2023-03-21T02:40:38.067Z,60.87
2023-03-21T02:43:22.515Z,60.89
2023-03-21T02:45:57.939Z,60.96
2023-03-21T02:48:50.574Z,60.98
2023-03-21T02:51:21.076Z,61.01
2023-03-21T02:54:13.010Z,61.10
2023-03-21T02:56:41.370Z,61.02
2023-03-21T02:59:08.807Z,61.15
2023-03-21T03:01:35.919Z,61.45
2023-03-21T03:04:02.499Z,61.10
2023-03-21T03:06:47.779Z,61.06
2023-03-21T03:09:32.380Z,60.98
2023-03-21T03:12:16.575Z,61.10
2023-03-21T03:15:05.139Z,61.05
2023-03-21T03:17:52.657Z,61.12
2023-03-21T03:20:36.576Z,60.95
2023-03-21T03:23:25.999Z,61.09
2023-03-21T03:25:58.399Z,61.07
2023-03-21T03:28:35.508Z,61.42
2023-03-21T03:31:09.278Z,61.37
2023-03-21T03:33:40.837Z,61.47
2023-03-21T03:36:21.500Z,61.54
2023-03-21T03:38:56.322Z,61.75
2023-03-21T03:41:26.772Z,61.99
2023-03-21T03:43:56.346Z,62.04
2023-03-21T03:46:33.270Z,61.90
2023-03-21T03:49:11.938Z,62.10
2023-03-21T03:52:02.963Z,62.26
2023-03-21T03:54:38.340Z,62.08
2023-03-21T03:57:06.594Z,62.42
2023-03-21T03:59:37.225Z,62.44
2023-03-21T04:02:04.750Z,62.74
2023-03-21T04:04:31.731Z,62.85
2023-03-21T04:06:58.376Z,63.16
2023-03-21T04:09:42.704Z,62.97
2023-03-21T04:12:10.460Z,63.07
2023-03-21T04:14:44.479Z,63.20
2023-03-21T04:17:12.065Z,63.09
2023-03-21T04:19:38.502Z,63.25
2023-03-21T04:22:04.842Z,63.41
2023-03-21T04:24:33.781Z,63.51
2023-03-21T04:27:00.851Z,63.42
2023-03-21T04:29:29.550Z,63.75
2023-03-21T04:31:56.250Z,63.64
2023-03-21T04:34:23.990Z,63.33
2023-03-21T04:36:50.869Z,63.77
2023-03-21T04:39:18.300Z,63.80
2023-03-21T04:41:46.252Z,63.73
2023-03-21T04:44:14.409Z,63.69
2023-03-21T04:46:41.767Z,63.77
2023-03-21T04:49:08.311Z,63.68
2023-03-21T04:51:35.854Z,63.69
2023-03-21T04:54:02.316Z,63.92
2023-03-21T04:56:33.787Z,63.86
2023-03-21T04:59:09.718Z,63.67
2023-03-21T05:01:36.080Z,63.46
2023-03-21T05:04:04.401Z,63.18
2023-03-21T05:06:30.792Z,63.31
2023-03-21T05:09:01.664Z,63.26
2023-03-21T05:11:32.255Z,63.45
2023-03-21T05:13:59.534Z,63.45
2023-03-21T05:16:30.354Z,63.55
2023-03-21T05:18:59.071Z,63.37
2023-03-21T05:21:29.339Z,63.56
2023-03-21T05:23:58.210Z,63.45
2023-03-21T05:26:25.115Z,63.54
2023-03-21T05:28:51.481Z,63.40
2023-03-21T05:31:19.258Z,63.39
2023-03-21T05:33:46.506Z,63.32
2023-03-21T05:36:13.813Z,63.21
2023-03-21T05:38:45.665Z,63.07
2023-03-21T05:41:14.004Z,63.08
2023-03-21T05:43:40.554Z,63.01
2023-03-21T05:46:07.614Z,63.06
2023-03-21T05:48:34.653Z,62.96
2023-03-21T05:51:01.984Z,62.95
2023-03-21T05:53:28.350Z,62.94
2023-03-21T05:55:54.771Z,62.65
2023-03-21T05:58:21.122Z,62.80
2023-03-21T06:00:47.623Z,62.87
2023-03-21T06:03:15.286Z,62.67
2023-03-21T06:05:41.639Z,62.69
2023-03-21T06:08:08.003Z,62.68
2023-03-21T06:10:34.404Z,62.56
2023-03-21T06:13:00.916Z,62.71
2023-03-21T06:15:27.364Z,62.63
2023-03-21T06:17:53.788Z,62.65
2023-03-21T06:20:20.147Z,62.51
2023-03-21T06:22:46.548Z,62.55
2023-03-21T06:25:12.921Z,62.64
2023-03-21T06:27:39.360Z,62.55
2023-03-21T06:30:06.780Z,62.70
2023-03-21T06:32:33.129Z,62.68
2023-03-21T06:34:59.581Z,62.66
2023-03-21T06:37:28.662Z,62.71
2023-03-21T06:39:55.673Z,62.53
2023-03-21T06:42:22.197Z,62.32
2023-03-21T06:44:48.753Z,62.46
2023-03-21T06:47:15.810Z,62.30
2023-03-21T06:49:43.636Z,62.40
2023-03-21T06:52:10.867Z,62.45
2023-03-21T06:54:37.344Z,62.51
2023-03-21T06:57:03.696Z,62.70
2023-03-21T06:59:30.129Z,62.51
2023-03-21T07:01:56.777Z,62.31
2023-03-21T07:04:23.199Z,62.53
2023-03-21T07:06:49.645Z,62.70
2023-03-21T07:09:17.910Z,62.93
2023-03-21T07:11:44.269Z,63.11
2023-03-21T07:14:10.595Z,63.34
2023-03-21T07:16:37.110Z,63.27
2023-03-21T07:19:04.300Z,63.43
2023-03-21T07:21:31.182Z,63.61
2023-03-21T07:23:57.696Z,63.66
2023-03-21T07:26:24.043Z,63.84
2023-03-21T07:28:50.508Z,63.97
2023-03-21T07:31:17.682Z,64.14
2023-03-21T07:33:44.082Z,64.27
2023-03-21T07:36:12.978Z,64.28
2023-03-21T07:38:41.026Z,64.41
2023-03-21T07:41:07.696Z,64.58
2023-03-21T07:43:34.758Z,64.44
2023-03-21T07:46:02.781Z,64.43
2023-03-21T07:48:29.813Z,64.41
2023-03-21T07:50:56.397Z,64.63
2023-03-21T07:53:23.107Z,64.51
2023-03-21T07:55:55.581Z,64.77
2023-03-21T07:58:23.401Z,64.69
2023-03-21T08:00:49.997Z,64.75
2023-03-21T08:03:16.769Z,64.64
2023-03-21T08:05:44.165Z,64.69
2023-03-21T08:08:11.001Z,64.66
2023-03-21T08:10:37.408Z,64.63
2023-03-21T08:13:04.146Z,64.69
2023-03-21T08:15:31.403Z,64.74
2023-03-21T08:17:59.369Z,64.55
2023-03-21T08:20:25.827Z,64.54
2023-03-21T08:22:52.332Z,64.46
2023-03-21T08:25:22.386Z,64.39
2023-03-21T08:27:49.266Z,64.49
2023-03-21T08:30:18.937Z,64.46
2023-03-21T08:32:45.617Z,64.74
2023-03-21T08:35:13.549Z,64.81
2023-03-21T08:37:41.303Z,64.74
2023-03-21T08:40:13.665Z,64.87
2023-03-21T08:42:41.433Z,65.01
2023-03-21T08:45:09.487Z,65.01
2023-03-21T08:47:36.039Z,65.46
2023-03-21T08:50:03.775Z,65.15
2023-03-21T08:52:30.255Z,65.59
2023-03-21T08:54:56.593Z,65.55
2023-03-21T08:57:23.171Z,65.57
2023-03-21T08:59:49.657Z,65.39
2023-03-21T09:02:17.392Z,65.34
2023-03-21T09:04:44.915Z,65.20
2023-03-21T09:07:17.073Z,64.89
2023-03-21T09:09:43.756Z,64.83
2023-03-21T09:12:11.257Z,64.56
2023-03-21T09:14:37.725Z,64.43
2023-03-21T09:17:04.197Z,64.26
2023-03-21T09:19:31.891Z,64.21
2023-03-21T09:21:58.699Z,64.07
2023-03-21T09:24:26.658Z,64.11
2023-03-21T09:26:53.197Z,64.15
2023-03-21T09:29:21.322Z,63.96
2023-03-21T09:31:48.329Z,63.88
2023-03-21T09:34:15.742Z,63.62
2023-03-21T09:36:44.122Z,63.61
2023-03-21T09:39:15.839Z,63.62
2023-03-21T09:41:57.839Z,63.85
2023-03-21T09:44:55.563Z,63.84
2023-03-21T09:47:34.695Z,63.58
2023-03-21T09:50:14.458Z,63.62
2023-03-21T09:53:01.079Z,63.67
2023-03-21T09:55:40.269Z,63.46
2023-03-21T09:58:09.894Z,63.58
2023-03-21T10:00:40.214Z,63.40
2023-03-21T10:03:20.186Z,63.27
2023-03-21T10:05:48.507Z,63.06
2023-03-21T10:08:27.169Z,63.25
2023-03-21T10:11:03.645Z,63.22
2023-03-21T10:13:34.055Z,63.29
2023-03-21T10:16:06.566Z,63.71
2023-03-21T10:18:33.373Z,63.78
2023-03-21T10:21:01.134Z,63.79
2023-03-21T10:23:41.881Z,63.66
2023-03-21T10:26:09.388Z,63.64
2023-03-21T10:28:52.442Z,63.58
2023-03-21T10:31:25.422Z,63.29
2023-03-21T10:33:54.935Z,63.10
2023-03-21T10:36:29.091Z,63.09
2023-03-21T10:39:16.070Z,62.61
2023-03-21T10:41:43.381Z,62.69
2023-03-21T10:44:16.693Z,62.96
2023-03-21T10:46:54.903Z,62.93
2023-03-21T10:49:21.730Z,62.77
2023-03-21T10:52:04.917Z,62.75
2023-03-21T10:54:35.541Z,62.83
2023-03-21T10:57:11.834Z,63.02
2023-03-21T10:59:49.353Z,62.93
2023-03-21T11:02:26.358Z,62.88
2023-03-21T11:04:55.645Z,62.74
2023-03-21T11:07:25.406Z,63.00
2023-03-21T11:09:58.961Z,62.99
2023-03-21T11:12:39.765Z,63.59
2023-03-21T11:15:15.283Z,63.44
2023-03-21T11:17:42.073Z,63.95
2023-03-21T11:20:11.327Z,64.01
2023-03-21T11:22:43.741Z,64.01
2023-03-21T11:25:22.887Z,64.18
2023-03-21T11:28:21.143Z,63.93
2023-03-21T11:30:56.709Z,63.93
2023-03-21T11:33:31.781Z,63.84
2023-03-21T11:39:49.918Z,63.38
2023-03-21T11:45:15.214Z,63.04
2023-03-21T11:47:42.054Z,62.92
2023-03-21T11:50:34.405Z,62.75
2023-03-21T11:53:20.842Z,62.68
2023-03-21T11:55:54.373Z,62.69
2023-03-21T11:59:04.859Z,62.74
2023-03-21T12:01:40.343Z,62.97
2023-03-21T12:04:31.888Z,63.01
2023-03-21T12:07:26.305Z,62.73
2023-03-21T12:10:01.631Z,62.34
2023-03-21T12:12:42.049Z,62.33
2023-03-21T12:15:55.602Z,62.18
2023-03-21T12:18:58.879Z,61.99
2023-03-21T12:22:03.067Z,62.44
2023-03-21T12:24:38.412Z,62.42
2023-03-21T12:27:36.945Z,62.11
2023-03-21T12:30:23.715Z,62.34
2023-03-21T12:33:02.001Z,62.41
2023-03-21T12:35:42.318Z,62.85
2023-03-21T12:38:28.423Z,62.90
2023-03-21T12:41:03.858Z,62.55
2023-03-21T12:43:55.657Z,62.53
2023-03-21T12:46:40.575Z,62.57
2023-03-21T12:49:18.126Z,62.54
2023-03-21T12:51:48.645Z,63.01
2023-03-21T12:54:25.131Z,63.15
2023-03-21T12:57:28.745Z,63.24
2023-03-21T13:00:13.887Z,63.31
2023-03-21T13:02:55.436Z,63.29
2023-03-21T13:05:33.407Z,63.08
2023-03-21T13:08:12.198Z,63.25
2023-03-21T13:10:40.246Z,63.14
2023-03-21T13:13:37.666Z,62.63
2023-03-21T13:16:33.324Z,62.53
2023-03-21T13:19:18.222Z,62.27
2023-03-21T13:22:07.200Z,62.50
2023-03-21T13:25:07.493Z,61.92
2023-03-21T13:27:36.624Z,61.50
2023-03-21T13:30:19.317Z,61.41
2023-03-21T13:32:49.706Z,61.21
2023-03-21T13:35:16.479Z,60.73
2023-03-21T13:37:51.857Z,60.32
2023-03-21T13:40:42.772Z,60.04
2023-03-21T13:43:31.690Z,60.05
2023-03-21T13:46:06.364Z,60.07
2023-03-21T13:48:59.745Z,59.82
2023-03-21T13:51:29.376Z,59.67
2023-03-21T13:54:02.966Z,59.51
2023-03-21T13:56:30.643Z,59.33
2023-03-21T13:59:03.359Z,59.15
2023-03-21T14:01:39.367Z,59.08
2023-03-21T14:04:16.644Z,59.04
2023-03-21T14:06:51.284Z,58.97
2023-03-21T14:09:36.138Z,59.03
2023-03-21T14:12:08.078Z,58.58
2023-03-21T14:14:41.812Z,58.97
2023-03-21T14:17:20.965Z,59.18
2023-03-21T14:19:52.717Z,59.31
2023-03-21T14:22:19.093Z,59.17
2023-03-21T14:24:54.769Z,59.46
2023-03-21T14:27:22.084Z,59.24
2023-03-21T14:29:51.273Z,59.69
2023-03-21T14:32:22.499Z,59.86
2023-03-21T14:34:49.366Z,59.78
2023-03-21T14:37:28.416Z,59.72
2023-03-21T14:40:06.369Z,59.57
2023-03-21T14:42:38.120Z,59.39
2023-03-21T14:45:17.174Z,59.56
2023-03-21T14:48:01.796Z,59.34
2023-03-21T14:50:34.727Z,59.56
2023-03-21T14:53:01.359Z,59.65
2023-03-21T14:55:28.622Z,59.37
2023-03-21T14:57:56.445Z,59.21
2023-03-21T15:00:29.159Z,58.98
2023-03-21T15:02:59.073Z,58.93
2023-03-21T15:05:31.345Z,58.95
2023-03-21T15:08:06.904Z,59.20
2023-03-21T15:10:33.535Z,59.08
2023-03-21T15:13:02.935Z,58.72
2023-03-21T15:15:31.684Z,58.64
2023-03-21T15:18:03.698Z,58.65
2023-03-21T15:20:33.908Z,58.82
2023-03-21T15:23:17.471Z,58.40
2023-03-21T15:25:45.238Z,57.86
2023-03-21T15:28:14.334Z,57.54
2023-03-21T15:30:48.838Z,57.62
2023-03-21T15:33:15.778Z,57.26
2023-03-21T15:35:54.024Z,57.02
2023-03-21T15:38:41.081Z,56.80
2023-03-21T15:41:15.590Z,56.46
2023-03-21T15:43:42.211Z,55.97
2023-03-21T15:46:42.691Z,55.92
2023-03-21T15:49:13.044Z,55.63
2023-03-21T15:51:42.884Z,55.44
2023-03-21T15:54:15.200Z,55.25
2023-03-21T15:56:46.424Z,54.96
2023-03-21T15:59:17.978Z,55.52
2023-03-21T16:01:49.121Z,55.06
2023-03-21T16:04:18.347Z,54.79
2023-03-21T16:07:00.198Z,55.03
2023-03-21T16:09:26.941Z,54.76
2023-03-21T16:11:58.825Z,55.15
2023-03-21T16:14:29.850Z,54.84
2023-03-21T16:16:58.940Z,54.58
2023-03-21T16:19:27.613Z,54.88
2023-03-21T16:21:53.959Z,54.43
2023-03-21T16:24:20.263Z,54.49
2023-03-21T16:26:50.712Z,54.70
2023-03-21T16:29:18.516Z,53.92
2023-03-21T16:31:47.508Z,54.12
2023-03-21T16:34:13.866Z,53.40
2023-03-21T16:36:43.203Z,53.42
2023-03-21T16:39:25.276Z,53.55
2023-03-21T16:41:52.012Z,52.52
2023-03-21T16:44:19.544Z,52.57
2023-03-21T16:46:47.249Z,52.39
2023-03-21T16:49:24.803Z,52.79
2023-03-21T16:51:52.150Z,52.12
2023-03-21T16:54:18.569Z,52.09
2023-03-21T16:56:51.771Z,52.51
2023-03-21T16:59:18.368Z,52.32
2023-03-21T17:01:48.729Z,52.74
2023-03-21T17:04:17.691Z,53.07
2023-03-21T17:06:50.038Z,53.30
2023-03-21T17:09:19.671Z,53.03
2023-03-21T17:11:46.120Z,53.42
2023-03-21T17:14:14.122Z,53.39
2023-03-21T17:16:42.827Z,53.42
2023-03-21T17:19:15.344Z,53.75
2023-03-21T17:21:41.976Z,53.69
2023-03-21T17:24:08.817Z,53.71
2023-03-21T17:26:36.582Z,53.67
2023-03-21T17:29:03.918Z,53.46
2023-03-21T17:31:36.836Z,53.70
2023-03-21T17:34:04.562Z,53.84
2023-03-21T17:36:34.797Z,53.86
2023-03-21T17:39:06.943Z,54.03
2023-03-21T17:41:33.530Z,54.29
2023-03-21T17:44:00.246Z,54.09
2023-03-21T17:46:29.075Z,54.38
2023-03-21T17:48:56.091Z,54.21
2023-03-21T17:51:26.016Z,54.55
2023-03-21T17:53:52.536Z,54.03
2023-03-21T17:56:27.891Z,54.15
2023-03-21T17:58:54.501Z,54.66
2023-03-21T18:01:21.221Z,54.43
2023-03-21T18:03:47.680Z,54.45
2023-03-21T18:06:17.529Z,54.76
2023-03-21T18:08:45.302Z,54.47
2023-03-21T18:11:15.286Z,54.81
2023-03-21T18:13:45.419Z,54.75
2023-03-21T18:16:14.996Z,54.85
2023-03-21T18:18:41.652Z,54.73
2023-03-21T18:21:10.662Z,54.79
2023-03-21T18:23:38.397Z,54.63
2023-03-21T18:26:06.485Z,54.67
2023-03-21T18:28:33.115Z,54.61
2023-03-21T18:31:19.278Z,54.80
2023-03-21T18:33:46.799Z,55.12
2023-03-21T18:36:16.790Z,54.66
2023-03-21T18:38:43.561Z,54.62
2023-03-21T18:41:10.477Z,54.75
2023-03-21T18:46:24.301Z,54.70
2023-03-21T18:48:51.771Z,54.91
2023-03-21T18:51:19.227Z,54.79
2023-03-21T18:53:45.803Z,55.24
2023-03-21T18:56:46.860Z,55.26
2023-03-21T18:58:59.286Z,55.27
2023-03-21T19:01:26.294Z,55.32
2023-03-21T19:04:16.476Z,56.05
2023-03-21T19:06:46.500Z,55.75
2023-03-21T19:09:14.467Z,55.88
2023-03-21T19:11:43.765Z,55.98
2023-03-21T19:14:11.547Z,56.22
2023-03-21T19:17:07.038Z,56.05
2023-03-21T19:19:27.100Z,56.35
2023-03-21T19:21:54.301Z,56.62
2023-03-21T19:24:27.641Z,56.94
2023-03-21T19:26:55.463Z,57.24
2023-03-21T19:29:22.100Z,57.10
2023-03-21T19:31:50.960Z,57.16
2023-03-21T19:34:18.683Z,57.17
2023-03-21T19:36:50.738Z,57.26
2023-03-21T19:39:21.898Z,57.44
2023-03-21T19:41:48.759Z,57.66
2023-03-21T19:44:15.363Z,57.82
2023-03-21T19:46:41.904Z,57.93
2023-03-21T19:49:08.236Z,57.95
2023-03-21T19:51:34.948Z,58.10
2023-03-21T19:54:04.354Z,58.26
2023-03-21T19:56:31.656Z,58.40
2023-03-21T19:58:58.754Z,58.30
2023-03-21T20:01:26.266Z,58.40
2023-03-21T20:03:53.121Z,58.60
2023-03-21T20:06:22.075Z,58.64
2023-03-21T20:11:34.784Z,58.33
2023-03-21T20:14:03.002Z,58.25
2023-03-21T20:16:34.943Z,57.92
2023-03-21T20:19:03.015Z,57.83
2023-03-21T20:21:46.196Z,57.55
2023-03-21T20:24:16.753Z,57.44
2023-03-21T20:26:45.036Z,57.07
2023-03-21T20:30:03.899Z,57.47
2023-03-21T20:31:58.444Z,57.49
2023-03-21T20:34:24.917Z,57.61
2023-03-21T20:36:51.442Z,57.84
2023-03-21T20:39:17.950Z,57.98
2023-03-21T20:41:44.327Z,58.42
2023-03-21T20:46:57.483Z,59.10
2023-03-21T20:49:24.291Z,59.36
2023-03-21T20:52:49.429Z,59.58
2023-03-21T20:54:37.871Z,59.36
2023-03-21T20:57:05.043Z,59.49
2023-03-21T20:59:31.583Z,59.52
2023-03-21T21:01:58.514Z,59.40
2023-03-21T21:04:46.742Z,59.57
2023-03-21T21:07:17.249Z,59.39
2023-03-21T21:09:45.264Z,59.57
2023-03-21T21:12:13.630Z,59.54
2023-03-21T21:14:41.003Z,59.60
2023-03-21T21:19:54.353Z,59.91
2023-03-21T21:22:20.891Z,59.79
2023-03-21T21:24:47.264Z,59.90
2023-03-21T21:27:13.848Z,60.00
2023-03-21T21:29:43.149Z,60.20
2023-03-21T21:32:09.746Z,60.16
2023-03-21T21:34:37.055Z,60.46
2023-03-21T21:37:03.676Z,60.55
2023-03-21T21:39:35.865Z,60.81
2023-03-21T21:42:02.515Z,60.86
2023-03-21T21:44:28.914Z,61.17
2023-03-21T21:46:55.556Z,61.33
2023-03-21T21:49:21.935Z,61.44
2023-03-21T21:51:48.343Z,61.56
2023-03-21T21:54:18.010Z,61.99
2023-03-21T21:56:48.224Z,61.94
2023-03-21T21:59:18.283Z,62.27
2023-03-21T22:01:46.524Z,62.28
2023-03-21T22:04:14.220Z,62.25
2023-03-21T22:06:42.326Z,62.36
2023-03-21T22:09:09.456Z,62.16
2023-03-21T22:11:36.408Z,62.22
2023-03-21T22:14:03.651Z,61.97
2023-03-21T22:16:30.274Z,62.09
2023-03-21T22:18:56.704Z,61.70
2023-03-21T22:21:23.427Z,61.91
2023-03-21T22:23:49.890Z,61.60
2023-03-21T22:26:16.600Z,61.82
2023-03-21T22:28:43.627Z,62.14
2023-03-21T22:31:13.432Z,62.29
2023-03-21T22:33:39.949Z,62.51
2023-03-21T22:36:06.774Z,62.74
2023-03-21T22:38:34.602Z,62.93
2023-03-21T22:41:03.897Z,63.10
2023-03-21T22:43:33.994Z,63.05
2023-03-21T22:46:02.426Z,62.89
2023-03-21T22:48:30.136Z,63.17
2023-03-21T22:50:57.774Z,63.12
2023-03-21T22:53:24.833Z,62.96
2023-03-21T22:55:51.466Z,63.13
2023-03-21T22:58:18.204Z,63.03
2023-03-21T23:00:44.652Z,62.84
2023-03-21T23:03:12.869Z,63.00
2023-03-21T23:05:41.069Z,62.66
2023-03-21T23:08:07.662Z,62.63
2023-03-21T23:10:36.745Z,62.79
2023-03-21T23:13:03.812Z,62.43
2023-03-21T23:15:30.264Z,62.41
2023-03-21T23:17:56.648Z,62.30
2023-03-21T23:20:23.005Z,62.06
2023-03-21T23:22:49.328Z,62.05
2023-03-21T23:25:15.670Z,62.06
2023-03-21T23:27:42.411Z,61.80
2023-03-21T23:30:09.037Z,61.46
2023-03-21T23:32:35.410Z,61.54
2023-03-21T23:35:01.779Z,61.33
2023-03-21T23:37:29.952Z,61.32
2023-03-21T23:39:56.533Z,61.16
2023-03-21T23:42:23.738Z,61.19
2023-03-21T23:44:50.482Z,61.22
2023-03-21T23:47:17.180Z,61.32
2023-03-21T23:49:49.154Z,61.29
2023-03-21T23:52:16.108Z,61.41
2023-03-21T23:54:42.439Z,61.39
2023-03-21T23:57:08.834Z,61.43
2023-03-21T23:59:35.240Z,61.24
